createdAt,value
2023-03-22T00:00:27.431Z,98352.28
2023-03-22T00:02:54.601Z,98349.56
2023-03-22T00:05:21.709Z,98346.38
2023-03-22T00:07:54.201Z,98351.78
2023-03-22T00:10:21.397Z,98356.28
2023-03-22T00:12:48.491Z,98360.44
2023-03-22T00:15:15.623Z,98353.56
2023-03-22T00:17:44.673Z,98350.97
2023-03-22T00:20:11.825Z,98343.16
2023-03-22T00:25:25.906Z,98339.84
2023-03-22T00:27:53.205Z,98333.72
2023-03-22T00:30:20.573Z,98331.34
2023-03-22T00:32:47.669Z,98330.38
2023-03-22T00:35:14.738Z,98330.25
2023-03-22T00:37:41.833Z,98329.56
2023-03-22T00:40:09.043Z,98332.41
2023-03-22T00:45:23.306Z,98314.63
2023-03-22T00:47:50.579Z,98314.91
2023-03-22T00:50:17.760Z,98314.63
2023-03-22T00:52:44.828Z,98318.81
2023-03-22T00:55:11.908Z,98311.25
2023-03-22T00:57:39.037Z,98309.59
2023-03-22T01:00:13.652Z,98310.56
2023-03-22T01:02:40.754Z,98308.88
2023-03-22T01:05:07.897Z,98310.66
2023-03-22T01:10:25.406Z,98313.38
2023-03-22T01:12:52.512Z,98304.84
2023-03-22T01:15:19.662Z,98304.03
2023-03-22T01:17:46.730Z,98304.03
2023-03-22T01:20:13.858Z,98301.56
2023-03-22T01:22:41.165Z,98297.31
2023-03-22T01:25:08.234Z,98296.59
2023-03-22T01:30:22.558Z,98286.34
2023-03-22T01:32:49.624Z,98285.47
2023-03-22T01:35:16.697Z,98283.97
2023-03-22T01:37:43.793Z,98283.16
2023-03-22T01:40:10.858Z,98291.88
2023-03-22T01:45:24.945Z,98288.34
2023-03-22T01:47:52.121Z,98284.06
2023-03-22T01:50:19.259Z,98286.66
2023-03-22T01:55:33.386Z,98278.19
2023-03-22T01:58:00.918Z,98273.06
2023-03-22T02:00:28.125Z,98278.28
2023-03-22T02:02:55.390Z,98273.06
2023-03-22T02:05:22.549Z,98275.81
2023-03-22T02:07:49.640Z,98280.19
2023-03-22T02:10:16.719Z,98277.59
2023-03-22T02:12:43.828Z,98271.56
2023-03-22T02:15:10.925Z,98270.84
2023-03-22T02:20:25.053Z,98268.38
2023-03-22T02:22:53.221Z,98263.19
2023-03-22T02:25:20.360Z,98264.13
2023-03-22T02:27:47.593Z,98266.72
2023-03-22T02:30:14.673Z,98267.66
2023-03-22T02:32:41.796Z,98259.84
2023-03-22T02:35:08.853Z,98248.63
2023-03-22T02:40:23.017Z,98260.94
2023-03-22T02:42:50.092Z,98254.88
2023-03-22T02:45:17.212Z,98243.81
2023-03-22T02:47:44.816Z,98245.69
2023-03-22T02:50:11.935Z,98253.38
2023-03-22T02:52:41.965Z,98250.66
2023-03-22T02:55:09.190Z,98246.41
2023-03-22T03:00:23.263Z,98249.25
2023-03-22T03:02:50.360Z,98244.84
2023-03-22T03:05:17.431Z,98248.41
2023-03-22T03:07:44.550Z,98245.69
2023-03-22T03:10:11.755Z,98250.88
2023-03-22T03:15:26.039Z,98245.09
2023-03-22T03:17:53.113Z,98243.34
2023-03-22T03:20:21.896Z,98248.66
2023-03-22T03:22:48.996Z,98239.06
2023-03-22T03:25:18.278Z,98244.41
2023-03-22T03:27:46.220Z,98242.75
2023-03-22T03:30:13.307Z,98247.09
2023-03-22T03:32:42.041Z,98247.81
2023-03-22T03:35:09.490Z,98243.59
2023-03-22T03:40:23.562Z,98240.97
2023-03-22T03:42:50.675Z,98249.84
2023-03-22T03:48:04.796Z,98261.19
2023-03-22T03:50:32.057Z,98258.69
2023-03-22T03:52:59.190Z,98251.72
2023-03-22T03:55:26.259Z,98254.31
2023-03-22T03:57:53.341Z,98252.56
2023-03-22T04:00:20.539Z,98256.91
2023-03-22T04:02:47.615Z,98253.50
2023-03-22T04:05:14.760Z,98245.69
2023-03-22T04:07:41.916Z,98251.03
2023-03-22T04:10:09.064Z,98251.03
2023-03-22T04:15:24.148Z,98255.50
2023-03-22T04:17:51.809Z,98253.75
2023-03-22T04:20:19.605Z,98259.88
2023-03-22T04:22:48.353Z,98258.97
2023-03-22T04:25:17.989Z,98261.66
2023-03-22T04:27:45.198Z,98265.22
2023-03-22T04:30:12.608Z,98261.78
2023-03-22T04:32:39.722Z,98260.97
2023-03-22T04:35:06.789Z,98251.41
2023-03-22T04:37:33.877Z,98253.28
2023-03-22T04:40:00.994Z,98249.84
2023-03-22T04:42:28.184Z,98253.28
2023-03-22T04:44:55.279Z,98243.69
2023-03-22T04:47:22.358Z,98258.47
2023-03-22T04:49:49.454Z,98248.06
2023-03-22T04:52:16.526Z,98251.63
2023-03-22T04:54:43.620Z,98247.38
2023-03-22T04:57:10.693Z,98256.81
2023-03-22T05:02:24.873Z,98244.78
2023-03-22T05:04:51.982Z,98255.19
2023-03-22T05:07:19.068Z,98244.88
2023-03-22T05:09:46.142Z,98249.25
2023-03-22T05:12:13.201Z,98252.69
2023-03-22T05:14:40.298Z,98249.25
2023-03-22T05:17:07.367Z,98246.66
2023-03-22T05:22:22.470Z,98234.72
2023-03-22T05:24:49.566Z,98237.22
2023-03-22T05:27:16.637Z,98239.09
2023-03-22T05:29:45.015Z,98237.31
2023-03-22T05:32:12.239Z,98237.31
2023-03-22T05:34:41.859Z,98238.28
2023-03-22T05:37:09.031Z,98231.44
2023-03-22T05:42:23.681Z,98231.53
2023-03-22T05:44:51.353Z,98231.53
2023-03-22T05:47:18.426Z,98228.09
2023-03-22T05:49:45.675Z,98231.53
2023-03-22T05:52:13.048Z,98234.13
2023-03-22T05:54:40.158Z,98234.13
2023-03-22T05:57:07.299Z,98229.06
2023-03-22T06:02:21.519Z,98217.97
2023-03-22T06:04:49.689Z,98221.41
2023-03-22T06:07:16.777Z,98220.44
2023-03-22T06:12:30.851Z,98221.25
2023-03-22T06:14:57.942Z,98217.84
2023-03-22T06:17:25.585Z,98223.88
2023-03-22T06:19:53.304Z,98220.31
2023-03-22T06:22:20.534Z,98226.31
2023-03-22T06:24:47.614Z,98224.59
2023-03-22T06:27:14.693Z,98223.72
2023-03-22T06:29:41.761Z,98225.50
2023-03-22T06:32:08.911Z,98222.09
2023-03-22T06:37:23.018Z,98227.28
2023-03-22T06:39:51.368Z,98229.78
2023-03-22T06:42:18.496Z,98232.38
2023-03-22T06:44:45.689Z,98228.94
2023-03-22T06:47:12.764Z,98221.03
2023-03-22T06:49:39.854Z,98226.09
2023-03-22T06:52:06.944Z,98224.44
2023-03-22T06:54:34.207Z,98228.00
2023-03-22T06:57:01.343Z,98219.38
2023-03-22T06:59:28.433Z,98220.22
2023-03-22T07:01:55.537Z,98229.78
2023-03-22T07:04:22.641Z,98223.72
2023-03-22T07:06:49.730Z,98228.81
2023-03-22T07:09:16.900Z,98228.00
2023-03-22T07:11:43.992Z,98235.66
2023-03-22T07:14:11.091Z,98230.25
2023-03-22T07:19:25.785Z,98232.97
2023-03-22T07:21:52.908Z,98229.53
2023-03-22T07:24:19.972Z,98228.59
2023-03-22T07:26:47.059Z,98228.59
2023-03-22T07:29:14.154Z,98228.47
2023-03-22T07:31:42.697Z,98231.78
2023-03-22T07:34:09.768Z,98231.66
2023-03-22T07:39:25.596Z,98237.22
2023-03-22T07:41:52.680Z,98230.81
2023-03-22T07:44:19.758Z,98229.75
2023-03-22T07:46:46.966Z,98236.38
2023-03-22T07:49:14.062Z,98238.59
2023-03-22T07:51:41.139Z,98232.94
2023-03-22T07:54:08.219Z,98233.47
2023-03-22T07:56:35.336Z,98241.03
2023-03-22T07:59:02.478Z,98238.22
2023-03-22T08:01:29.643Z,98238.94
2023-03-22T08:03:56.705Z,98233.97
2023-03-22T08:06:23.789Z,98236.06
2023-03-22T08:08:51.056Z,98244.44
2023-03-22T08:11:18.135Z,98237.59
2023-03-22T08:13:45.234Z,98242.69
2023-03-22T08:16:12.339Z,98240.19
2023-03-22T08:18:39.436Z,98242.22
2023-03-22T08:21:06.504Z,98236.28
2023-03-22T08:23:41.291Z,98236.16
2023-03-22T08:26:08.923Z,98236.25
2023-03-22T08:28:36.302Z,98232.06
2023-03-22T08:31:03.369Z,98231.13
2023-03-22T08:33:30.475Z,98226.97
2023-03-22T08:35:57.592Z,98228.41
2023-03-22T08:38:24.703Z,98229.22
2023-03-22T08:40:51.913Z,98226.38
2023-03-22T08:43:18.980Z,98233.06
2023-03-22T08:45:47.599Z,98227.19
2023-03-22T08:48:14.725Z,98224.44
2023-03-22T08:50:41.953Z,98235.56
2023-03-22T08:53:09.094Z,98234.03
2023-03-22T08:55:37.574Z,98230.38
2023-03-22T08:58:04.899Z,98219.69
2023-03-22T09:00:45.949Z,98216.38
2023-03-22T09:03:16.216Z,98224.06
2023-03-22T09:05:43.515Z,98217.22
2023-03-22T09:08:18.413Z,98212.50
2023-03-22T09:10:47.937Z,98215.69
2023-03-22T09:13:16.923Z,98210.22
2023-03-22T09:15:44.963Z,98215.03
2023-03-22T09:18:12.266Z,98216.72
2023-03-22T09:20:39.674Z,98214.94
2023-03-22T09:23:07.092Z,98216.44
2023-03-22T09:25:34.247Z,98210.56
2023-03-22T09:28:01.326Z,98208.53
2023-03-22T09:30:28.647Z,98217.88
2023-03-22T09:38:32.599Z,98203.94
2023-03-22T09:41:02.752Z,98209.53
2023-03-22T09:43:31.535Z,98198.03
2023-03-22T09:46:00.318Z,98201.59
2023-03-22T09:48:27.497Z,98201.72
2023-03-22T09:50:54.651Z,98199.81
2023-03-22T09:53:21.713Z,98195.41
2023-03-22T09:55:48.794Z,98192.56
2023-03-22T09:58:15.984Z,98190.94
2023-03-22T10:00:43.151Z,98188.06
2023-03-22T10:03:10.788Z,98189.28
2023-03-22T10:05:37.866Z,98179.88
2023-03-22T10:08:04.999Z,98170.84
2023-03-22T10:10:32.143Z,98172.38
2023-03-22T10:13:00.039Z,98169.63
2023-03-22T10:15:27.130Z,98168.00
2023-03-22T10:17:54.201Z,98169.31
2023-03-22T10:20:21.276Z,98159.63
2023-03-22T10:25:35.437Z,98157.44
2023-03-22T10:28:02.632Z,98152.22
2023-03-22T10:30:29.718Z,98158.25
2023-03-22T10:32:58.261Z,98146.91
2023-03-22T10:35:25.825Z,98162.25
2023-03-22T10:37:53.020Z,98151.84
2023-03-22T10:40:20.194Z,98136.28
2023-03-22T10:42:47.270Z,98133.25
2023-03-22T10:45:14.406Z,98137.91
2023-03-22T10:47:42.389Z,98138.84
2023-03-22T10:50:09.477Z,98134.34
2023-03-22T10:52:37.023Z,98137.56
2023-03-22T10:55:04.714Z,98128.56
2023-03-22T10:57:31.999Z,98120.88
2023-03-22T10:59:59.097Z,98120.47
2023-03-22T11:02:27.658Z,98121.72
2023-03-22T11:04:54.858Z,98124.06
2023-03-22T11:07:21.936Z,98123.91
2023-03-22T11:09:49.732Z,98129.41
2023-03-22T11:12:16.896Z,98131.28
2023-03-22T11:14:43.984Z,98138.59
2023-03-22T11:17:12.585Z,98129.00
2023-03-22T11:19:39.679Z,98127.09
2023-03-22T11:22:06.741Z,98125.44
2023-03-22T11:24:33.805Z,98126.41
2023-03-22T11:27:01.078Z,98118.03
2023-03-22T11:29:28.162Z,98120.25
2023-03-22T11:31:56.201Z,98115.19
2023-03-22T11:34:23.436Z,98116.09
2023-03-22T11:36:56.895Z,98118.59
2023-03-22T11:39:24.921Z,98112.44
2023-03-22T11:41:52.041Z,98114.47
2023-03-22T11:44:19.173Z,98104.47
2023-03-22T11:46:46.247Z,98100.22
2023-03-22T11:49:14.565Z,98094.91
2023-03-22T11:51:41.900Z,98094.06
2023-03-22T11:54:09.051Z,98096.13
2023-03-22T11:56:36.245Z,98103.38
2023-03-22T11:59:04.165Z,98102.41
2023-03-22T12:01:32.178Z,98098.72
2023-03-22T12:03:59.273Z,98096.66
2023-03-22T12:06:26.425Z,98098.09
2023-03-22T12:08:53.577Z,98089.41
2023-03-22T12:11:20.647Z,98089.41
2023-03-22T12:16:34.895Z,98084.50
2023-03-22T12:19:02.047Z,98078.56
2023-03-22T12:21:29.278Z,98076.53
2023-03-22T12:23:56.352Z,98072.59
2023-03-22T12:26:23.405Z,98070.00
2023-03-22T12:28:50.527Z,98070.00
2023-03-22T12:31:17.761Z,98069.28
2023-03-22T12:33:44.861Z,98070.25
2023-03-22T12:36:12.021Z,98075.06
2023-03-22T12:38:39.119Z,98076.16
2023-03-22T12:41:06.323Z,98063.13
2023-03-22T12:43:33.428Z,98061.34
2023-03-22T12:46:00.517Z,98057.66
2023-03-22T12:48:27.728Z,98064.13
2023-03-22T12:50:54.947Z,98051.13
2023-03-22T12:53:22.005Z,98045.72
2023-03-22T12:55:49.159Z,98044.78
2023-03-22T12:58:16.252Z,98044.63
2023-03-22T13:00:43.670Z,98040.69
2023-03-22T13:03:11.021Z,98030.28
2023-03-22T13:05:38.332Z,98037.25
2023-03-22T13:08:05.811Z,98031.22
2023-03-22T13:10:34.000Z,98033.41
2023-03-22T13:13:01.082Z,98027.63
2023-03-22T13:15:34.833Z,98026.25
2023-03-22T13:18:07.888Z,98025.75
2023-03-22T13:20:35.081Z,98022.44
2023-03-22T13:25:49.238Z,98015.84
2023-03-22T13:28:16.322Z,98022.47
2023-03-22T13:30:43.414Z,98016.56
2023-03-22T13:33:10.581Z,98013.94
2023-03-22T13:35:37.847Z,98005.06
2023-03-22T13:38:05.053Z,98006.44
2023-03-22T13:40:32.113Z,98003.69
2023-03-22T13:45:46.187Z,97997.41
2023-03-22T13:48:13.389Z,97996.13
2023-03-22T13:50:40.888Z,97998.38
2023-03-22T13:53:08.792Z,97997.97
2023-03-22T13:55:41.281Z,97991.94
2023-03-22T13:58:08.539Z,97995.47
2023-03-22T14:00:36.126Z,97990.09
2023-03-22T14:03:03.592Z,97988.75
2023-03-22T14:05:30.940Z,97991.09
2023-03-22T14:07:58.168Z,97978.91
2023-03-22T14:10:25.638Z,97970.13
2023-03-22T14:12:52.709Z,97972.56
2023-03-22T14:15:19.784Z,97977.69
2023-03-22T14:17:48.217Z,97977.53
2023-03-22T14:20:17.193Z,97971.66
2023-03-22T14:52:04.367Z,97947.78
2023-03-22T14:54:31.637Z,97947.63
2023-03-22T14:59:46.878Z,97946.81
2023-03-22T15:02:14.052Z,97950.13
2023-03-22T15:04:41.536Z,97943.69
2023-03-22T15:07:08.744Z,97942.97
2023-03-22T15:09:36.231Z,97944.50
2023-03-22T15:17:39.060Z,97945.75
2023-03-22T15:25:41.794Z,97939.81
2023-03-22T15:36:33.177Z,97929.81
2023-03-22T15:39:00.352Z,97932.00
2023-03-22T15:41:27.541Z,97924.22
2023-03-22T15:43:54.720Z,97921.59
2023-03-22T15:46:22.037Z,97925.44
2023-03-22T15:48:53.615Z,97922.00
2023-03-22T15:54:09.447Z,97925.31
2023-03-22T15:56:40.329Z,97925.16
2023-03-22T16:01:54.837Z,97917.50
2023-03-22T16:07:11.403Z,97918.31
2023-03-22T16:12:26.142Z,97915.00
2023-03-22T16:14:53.412Z,97917.63
2023-03-22T16:22:55.636Z,97909.41
2023-03-22T16:33:44.140Z,97910.63
2023-03-22T16:44:32.640Z,97917.75
2023-03-22T16:49:46.944Z,97917.75
2023-03-22T16:57:48.418Z,97922.97
2023-03-22T17:05:52.450Z,97922.19
2023-03-22T17:16:41.142Z,97933.41
2023-03-22T17:19:08.424Z,97934.91
2023-03-22T17:21:35.688Z,97942.72
2023-03-22T17:26:50.233Z,97944.09
2023-03-22T17:29:17.537Z,97942.44
2023-03-22T17:31:50.358Z,97947.53
2023-03-22T17:34:25.259Z,97934.22
2023-03-22T17:36:52.448Z,97930.94
2023-03-22T17:39:36.148Z,97941.94
2023-03-22T17:42:06.809Z,97937.78
2023-03-22T17:44:34.358Z,97941.09
2023-03-22T17:58:05.055Z,97954.13
2023-03-22T18:02:42.005Z,97954.94
2023-03-22T18:08:21.993Z,97957.16
2023-03-22T18:10:43.933Z,97955.38
2023-03-22T18:15:58.411Z,97965.41
2023-03-22T18:18:25.594Z,97963.16
2023-03-22T18:20:57.665Z,97964.13
2023-03-22T18:31:47.837Z,97973.47
2023-03-22T18:34:15.055Z,97968.09
2023-03-22T18:36:42.317Z,97970.63
2023-03-22T18:39:56.286Z,97969.75
2023-03-22T18:42:12.437Z,97969.88
2023-03-22T18:44:46.092Z,97969.88
2023-03-22T18:47:16.765Z,97969.88
2023-03-22T18:49:44.376Z,97980.06
2023-03-22T18:52:39.944Z,97978.53
2023-03-22T18:55:14.980Z,97980.31
2023-03-22T18:57:46.040Z,97984.00
2023-03-22T19:00:13.272Z,97979.75
2023-03-22T19:02:40.618Z,97984.31
2023-03-22T19:05:07.959Z,97986.91
2023-03-22T19:17:52.507Z,97981.81
2023-03-22T19:20:19.687Z,97979.09
2023-03-22T19:22:47.256Z,97972.09
2023-03-22T19:25:14.456Z,97968.66
2023-03-22T19:30:29.215Z,97975.94
2023-03-22T19:35:24.296Z,97960.97
2023-03-22T19:41:27.367Z,97959.44
2023-03-22T19:43:25.739Z,97959.44
2023-03-22T19:56:46.488Z,97963.03
2023-03-22T19:59:13.715Z,97960.44
2023-03-22T20:01:40.950Z,97958.63
2023-03-22T20:09:42.779Z,97968.25
2023-03-22T20:12:10.838Z,97967.28
2023-03-22T20:17:26.637Z,97959.72
2023-03-22T20:19:53.912Z,97960.81
2023-03-22T20:27:58.124Z,97967.28
2023-03-22T20:30:27.287Z,97965.50
2023-03-22T20:32:54.588Z,97968.09
2023-03-22T20:40:56.419Z,97973.84
2023-03-22T20:53:52.236Z,97967.53
2023-03-22T20:56:19.545Z,97971.78
2023-03-22T20:58:46.708Z,97976.88
2023-03-22T21:09:39.648Z,97966.47
2023-03-22T21:14:54.239Z,97975.09
2023-03-22T21:20:08.518Z,97973.56
2023-03-22T21:28:10.125Z,97965.63
2023-03-22T21:30:37.308Z,97970.00
2023-03-22T21:33:04.545Z,97969.03
2023-03-22T21:35:31.724Z,97959.59
2023-03-22T21:38:03.557Z,97958.75
2023-03-22T21:49:01.814Z,97960.00
2023-03-22T21:51:29.237Z,97960.00
2023-03-22T21:53:56.701Z,97960.00
2023-03-22T21:56:23.932Z,97956.56
2023-03-22T22:01:18.464Z,97956.56
2023-03-22T22:03:46.557Z,97954.78
2023-03-22T22:06:13.818Z,97945.31
2023-03-22T22:16:24.694Z,97951.47
2023-03-22T22:18:52.484Z,97951.34
2023-03-22T22:29:45.294Z,97942.13
2023-03-22T22:34:59.546Z,97949.13
2023-03-22T22:37:26.897Z,97945.03
2023-03-22T22:39:54.085Z,97941.31
2023-03-22T22:47:55.627Z,97950.25
2023-03-22T22:53:09.909Z,97948.06
2023-03-22T22:55:37.383Z,97954.09
2023-03-22T22:58:04.736Z,97953.13
2023-03-22T23:03:19.227Z,97954.09
2023-03-22T23:05:46.471Z,97953.41
2023-03-22T23:08:14.104Z,97944.47
2023-03-22T23:10:46.974Z,97945.44
2023-03-22T23:15:41.403Z,97944.06
2023-03-22T23:18:13.370Z,97945.72
2023-03-22T23:20:40.617Z,97939.69
2023-03-22T23:23:07.841Z,97943.25
2023-03-22T23:25:35.506Z,97939.94
2023-03-22T23:28:02.660Z,97938.31
2023-03-22T23:33:16.965Z,97931.06
2023-03-22T23:35:44.598Z,97938.03
2023-03-22T23:38:12.071Z,97945.88
2023-03-22T23:51:47.917Z,97940.09
2023-03-22T23:54:15.120Z,97934.88
2023-03-22T23:56:42.286Z,97933.09
2023-03-22T23:59:09.455Z,97934.75
